Chidester, Arkansas
Current Conditions -  °F | °C
As of 6:15 AM on Saturday 20 Dec 2014 (Local Time) from KCDH Reporting Station
Haze Haze  
Wind Chill: 41°   Ceiling: 4700
Heat Index: 41°   Visibility: 6mi
Dew Point: 37°   Wind: 0mph
Humidity: 87%   Direction: NA
Pressure: 30.25"   Gusts: NA
Location:  33.7°N, 93.02°W
Report Text: KCDH 201215Z AUTO 00000KT 6SM BR SCT006 OVC047 05/03 A3025 RMK AO2
Loading
Personal Weather Stations






























Interactive Weather Map New forecast layout! Learn more

10-Day Weather Forecast

Advertisements
Track Severe Weather on mobile